sensor_id;sensor_type;location;lat;lon;timestamp;pressure;altitude;pressure_sealevel;temperature;humidity
11912;BME280;6016;41.928;25.556;2023-12-07T00:01:59;98756.88;;;8.32;82.96
11912;BME280;6016;41.928;25.556;2023-12-07T00:04:26;98758.28;;;8.36;82.74
11912;BME280;6016;41.928;25.556;2023-12-07T00:06:53;98748.44;;;8.38;83.00
11912;BME280;6016;41.928;25.556;2023-12-07T00:09:22;98760.63;;;8.39;82.50
11912;BME280;6016;41.928;25.556;2023-12-07T00:11:48;98766.22;;;8.15;82.76
11912;BME280;6016;41.928;25.556;2023-12-07T00:14:16;98766.50;;;8.12;83.14
11912;BME280;6016;41.928;25.556;2023-12-07T00:16:42;98752.91;;;8.07;83.11
11912;BME280;6016;41.928;25.556;2023-12-07T00:19:09;98760.28;;;8.13;83.48
11912;BME280;6016;41.928;25.556;2023-12-07T00:21:36;98694.59;;;7.72;83.39
11912;BME280;6016;41.928;25.556;2023-12-07T00:24:04;98758.78;;;8.20;83.30
11912;BME280;6016;41.928;25.556;2023-12-07T00:26:32;98713.06;;;7.92;82.74
11912;BME280;6016;41.928;25.556;2023-12-07T00:28:59;98759.19;;;8.15;82.89
11912;BME280;6016;41.928;25.556;2023-12-07T00:31:26;98755.31;;;8.20;83.32
11912;BME280;6016;41.928;25.556;2023-12-07T00:33:53;98752.69;;;8.20;83.01
11912;BME280;6016;41.928;25.556;2023-12-07T00:36:20;98759.06;;;8.27;82.91
11912;BME280;6016;41.928;25.556;2023-12-07T00:38:47;98756.19;;;8.30;82.32
11912;BME280;6016;41.928;25.556;2023-12-07T00:41:14;98759.50;;;8.32;82.39
11912;BME280;6016;41.928;25.556;2023-12-07T00:43:43;98764.38;;;8.37;82.07
11912;BME280;6016;41.928;25.556;2023-12-07T00:46:10;98774.50;;;8.41;82.82
11912;BME280;6016;41.928;25.556;2023-12-07T00:48:37;98613.41;;;7.49;82.74
11912;BME280;6016;41.928;25.556;2023-12-07T00:51:04;98769.38;;;8.50;82.48
11912;BME280;6016;41.928;25.556;2023-12-07T00:53:32;98774.38;;;8.53;82.41
11912;BME280;6016;41.928;25.556;2023-12-07T00:55:59;98783.25;;;8.52;82.69
11912;BME280;6016;41.928;25.556;2023-12-07T00:58:26;98753.72;;;8.38;83.48
11912;BME280;6016;41.928;25.556;2023-12-07T01:00:55;98769.84;;;8.55;82.79
11912;BME280;6016;41.928;25.556;2023-12-07T01:03:22;98760.03;;;8.57;82.05
11912;BME280;6016;41.928;25.556;2023-12-07T01:05:49;98782.44;;;8.71;82.60
11912;BME280;6016;41.928;25.556;2023-12-07T01:08:16;98726.06;;;8.44;83.10
11912;BME280;6016;41.928;25.556;2023-12-07T01:10:42;98775.13;;;8.75;81.50
11912;BME280;6016;41.928;25.556;2023-12-07T01:13:09;98770.56;;;8.77;80.46
11912;BME280;6016;41.928;25.556;2023-12-07T01:15:36;98765.47;;;8.75;78.83
11912;BME280;6016;41.928;25.556;2023-12-07T01:18:05;98766.41;;;8.74;78.34
11912;BME280;6016;41.928;25.556;2023-12-07T01:20:32;98763.34;;;8.69;77.87
11912;BME280;6016;41.928;25.556;2023-12-07T01:22:59;98763.75;;;8.64;77.71
11912;BME280;6016;41.928;25.556;2023-12-07T01:25:25;98764.03;;;8.61;78.19
11912;BME280;6016;41.928;25.556;2023-12-07T01:27:53;98758.22;;;8.57;78.25
11912;BME280;6016;41.928;25.556;2023-12-07T01:30:20;98756.13;;;8.51;78.79
11912;BME280;6016;41.928;25.556;2023-12-07T01:32:47;98740.03;;;8.35;77.80
11912;BME280;6016;41.928;25.556;2023-12-07T01:35:15;98754.16;;;8.43;78.39
11912;BME280;6016;41.928;25.556;2023-12-07T01:37:42;98751.34;;;8.35;78.01
11912;BME280;6016;41.928;25.556;2023-12-07T01:40:10;98744.28;;;8.26;77.76
11912;BME280;6016;41.928;25.556;2023-12-07T01:42:37;98756.28;;;8.19;78.32
11912;BME280;6016;41.928;25.556;2023-12-07T01:45:05;98748.53;;;8.17;78.73
11912;BME280;6016;41.928;25.556;2023-12-07T01:47:33;98748.81;;;8.14;78.76
11912;BME280;6016;41.928;25.556;2023-12-07T01:50:02;98747.97;;;8.13;78.89
11912;BME280;6016;41.928;25.556;2023-12-07T01:52:33;98750.34;;;8.16;78.62
11912;BME280;6016;41.928;25.556;2023-12-07T01:55:03;98735.66;;;8.04;78.66
11912;BME280;6016;41.928;25.556;2023-12-07T01:57:30;98757.09;;;8.19;78.07
11912;BME280;6016;41.928;25.556;2023-12-07T01:59:57;98737.72;;;8.10;78.07
11912;BME280;6016;41.928;25.556;2023-12-07T02:02:24;98753.41;;;8.22;78.59
11912;BME280;6016;41.928;25.556;2023-12-07T02:04:52;98688.88;;;7.88;77.98
11912;BME280;6016;41.928;25.556;2023-12-07T02:07:19;98741.75;;;8.14;78.54
11912;BME280;6016;41.928;25.556;2023-12-07T02:09:47;98739.66;;;8.08;78.66
11912;BME280;6016;41.928;25.556;2023-12-07T02:12:14;98750.44;;;8.05;78.33
11912;BME280;6016;41.928;25.556;2023-12-07T02:14:41;98752.19;;;7.95;78.26
11912;BME280;6016;41.928;25.556;2023-12-07T02:17:14;98752.47;;;7.92;78.48
11912;BME280;6016;41.928;25.556;2023-12-07T02:19:52;98752.56;;;7.90;78.16
11912;BME280;6016;41.928;25.556;2023-12-07T02:22:26;98749.09;;;7.89;77.80
11912;BME280;6016;41.928;25.556;2023-12-07T02:25:05;98759.06;;;7.86;78.02
11912;BME280;6016;41.928;25.556;2023-12-07T02:27:36;98758.59;;;7.81;78.20
11912;BME280;6016;41.928;25.556;2023-12-07T02:30:04;98753.19;;;7.72;77.78
11912;BME280;6016;41.928;25.556;2023-12-07T02:49:22;98738.72;;;7.36;79.35
11912;BME280;6016;41.928;25.556;2023-12-07T02:51:48;98748.72;;;7.42;79.15
11912;BME280;6016;41.928;25.556;2023-12-07T02:54:15;98751.22;;;7.43;79.40
11912;BME280;6016;41.928;25.556;2023-12-07T02:56:42;98745.41;;;7.40;80.03
11912;BME280;6016;41.928;25.556;2023-12-07T02:59:09;98757.09;;;7.36;78.98
11912;BME280;6016;41.928;25.556;2023-12-07T03:01:36;98754.91;;;7.20;80.11
11912;BME280;6016;41.928;25.556;2023-12-07T03:04:03;98743.22;;;7.02;81.07
11912;BME280;6016;41.928;25.556;2023-12-07T03:06:32;98756.72;;;7.19;80.01
11912;BME280;6016;41.928;25.556;2023-12-07T03:08:59;98744.63;;;7.07;80.15
11912;BME280;6016;41.928;25.556;2023-12-07T03:11:25;98754.03;;;7.30;79.29
11912;BME280;6016;41.928;25.556;2023-12-07T03:13:52;98758.66;;;7.38;78.42
11912;BME280;6016;41.928;25.556;2023-12-07T03:16:19;98759.72;;;7.36;78.72
11912;BME280;6016;41.928;25.556;2023-12-07T03:18:46;98750.06;;;7.36;78.51
11912;BME280;6016;41.928;25.556;2023-12-07T03:21:13;98707.06;;;7.06;78.32
11912;BME280;6016;41.928;25.556;2023-12-07T03:23:42;98744.81;;;7.36;79.46
11912;BME280;6016;41.928;25.556;2023-12-07T03:26:09;98742.22;;;7.36;78.75
11912;BME280;6016;41.928;25.556;2023-12-07T03:28:36;98688.84;;;6.83;79.31
11912;BME280;6016;41.928;25.556;2023-12-07T03:31:03;98717.00;;;7.02;79.63
11912;BME280;6016;41.928;25.556;2023-12-07T03:33:30;98754.31;;;7.27;78.05
11912;BME280;6016;41.928;25.556;2023-12-07T03:35:57;98750.72;;;7.28;78.23
11912;BME280;6016;41.928;25.556;2023-12-07T03:38:24;98755.63;;;7.22;78.65
11912;BME280;6016;41.928;25.556;2023-12-07T03:40:52;98704.38;;;6.96;78.40
11912;BME280;6016;41.928;25.556;2023-12-07T03:43:19;98743.28;;;7.12;78.11
11912;BME280;6016;41.928;25.556;2023-12-07T03:45:47;98763.03;;;7.16;78.42
11912;BME280;6016;41.928;25.556;2023-12-07T03:48:14;98754.16;;;7.08;78.10
11912;BME280;6016;41.928;25.556;2023-12-07T03:50:41;98757.13;;;7.03;78.66
11912;BME280;6016;41.928;25.556;2023-12-07T03:53:08;98757.25;;;7.01;78.88
11912;BME280;6016;41.928;25.556;2023-12-07T03:55:35;98746.75;;;7.01;78.70
11912;BME280;6016;41.928;25.556;2023-12-07T03:58:04;98760.69;;;7.13;78.18
11912;BME280;6016;41.928;25.556;2023-12-07T04:00:31;98657.50;;;6.49;78.60
11912;BME280;6016;41.928;25.556;2023-12-07T04:02:58;98760.41;;;7.16;78.17
11912;BME280;6016;41.928;25.556;2023-12-07T04:05:25;98741.28;;;7.04;78.27
11912;BME280;6016;41.928;25.556;2023-12-07T04:07:52;98757.09;;;7.14;77.81
11912;BME280;6016;41.928;25.556;2023-12-07T04:10:19;98756.88;;;7.06;77.65
11912;BME280;6016;41.928;25.556;2023-12-07T04:12:46;98761.91;;;7.09;77.74
11912;BME280;6016;41.928;25.556;2023-12-07T04:15:15;98756.66;;;7.09;77.77
11912;BME280;6016;41.928;25.556;2023-12-07T04:17:42;98759.06;;;7.01;77.59
11912;BME280;6016;41.928;25.556;2023-12-07T04:20:10;98690.69;;;6.60;77.59
11912;BME280;6016;41.928;25.556;2023-12-07T04:22:37;98760.44;;;6.84;77.39
11912;BME280;6016;41.928;25.556;2023-12-07T04:25:05;98732.75;;;6.58;78.67
11912;BME280;6016;41.928;25.556;2023-12-07T04:27:32;98762.78;;;6.87;79.12
11912;BME280;6016;41.928;25.556;2023-12-07T04:29:59;98759.97;;;6.79;77.91
11912;BME280;6016;41.928;25.556;2023-12-07T04:32:28;98761.84;;;6.88;78.08
11912;BME280;6016;41.928;25.556;2023-12-07T04:34:55;98726.63;;;6.69;77.37
11912;BME280;6016;41.928;25.556;2023-12-07T04:37:22;98761.34;;;6.94;77.29
11912;BME280;6016;41.928;25.556;2023-12-07T04:39:49;98761.09;;;6.97;77.32
11912;BME280;6016;41.928;25.556;2023-12-07T04:42:16;98760.50;;;6.94;77.39
11912;BME280;6016;41.928;25.556;2023-12-07T04:44:43;98758.03;;;6.92;78.33
11912;BME280;6016;41.928;25.556;2023-12-07T04:47:10;98719.03;;;6.66;77.95
11912;BME280;6016;41.928;25.556;2023-12-07T04:49:38;98751.56;;;6.96;79.09
11912;BME280;6016;41.928;25.556;2023-12-07T04:52:06;98722.50;;;6.88;78.43
11912;BME280;6016;41.928;25.556;2023-12-07T04:54:32;98745.94;;;7.01;78.23
11912;BME280;6016;41.928;25.556;2023-12-07T04:56:59;98734.75;;;6.99;77.46
11912;BME280;6016;41.928;25.556;2023-12-07T04:59:26;98755.53;;;7.12;77.55
11912;BME280;6016;41.928;25.556;2023-12-07T05:01:53;98747.44;;;7.15;77.37
11912;BME280;6016;41.928;25.556;2023-12-07T05:04:20;98761.50;;;7.14;76.86
11912;BME280;6016;41.928;25.556;2023-12-07T05:06:49;98771.97;;;7.14;77.25
11912;BME280;6016;41.928;25.556;2023-12-07T05:09:16;98762.00;;;7.08;77.12
11912;BME280;6016;41.928;25.556;2023-12-07T05:11:43;98773.75;;;6.92;77.67
11912;BME280;6016;41.928;25.556;2023-12-07T05:14:10;98733.31;;;6.62;77.92
11912;BME280;6016;41.928;25.556;2023-12-07T05:16:38;98782.00;;;6.87;77.95
11912;BME280;6016;41.928;25.556;2023-12-07T05:19:04;98788.19;;;6.86;78.07
11912;BME280;6016;41.928;25.556;2023-12-07T05:21:32;98791.41;;;6.90;78.25
11912;BME280;6016;41.928;25.556;2023-12-07T05:24:00;98792.25;;;6.79;77.65
11912;BME280;6016;41.928;25.556;2023-12-07T05:26:27;98782.38;;;6.71;77.08
11912;BME280;6016;41.928;25.556;2023-12-07T05:28:55;98768.34;;;6.61;76.49
11912;BME280;6016;41.928;25.556;2023-12-07T05:31:22;98791.00;;;6.95;76.45
11912;BME280;6016;41.928;25.556;2023-12-07T05:33:49;98743.19;;;6.70;76.36
11912;BME280;6016;41.928;25.556;2023-12-07T05:36:16;98798.88;;;6.95;76.30
11912;BME280;6016;41.928;25.556;2023-12-07T05:38:43;98715.16;;;6.38;76.68
11912;BME280;6016;41.928;25.556;2023-12-07T05:41:11;98804.66;;;6.77;77.18
11912;BME280;6016;41.928;25.556;2023-12-07T05:43:40;98794.16;;;6.77;76.71
11912;BME280;6016;41.928;25.556;2023-12-07T05:46:07;98807.88;;;6.81;77.04
11912;BME280;6016;41.928;25.556;2023-12-07T05:48:34;98755.41;;;6.48;77.56
11912;BME280;6016;41.928;25.556;2023-12-07T05:51:01;98808.31;;;6.86;78.57
11912;BME280;6016;41.928;25.556;2023-12-07T05:53:28;98807.59;;;6.84;78.46
11912;BME280;6016;41.928;25.556;2023-12-07T05:55:58;98801.56;;;6.83;78.62
11912;BME280;6016;41.928;25.556;2023-12-07T05:58:26;98807.84;;;6.92;79.83
11912;BME280;6016;41.928;25.556;2023-12-07T06:00:53;98811.88;;;6.96;78.51
11912;BME280;6016;41.928;25.556;2023-12-07T06:03:20;98765.84;;;6.71;78.76
11912;BME280;6016;41.928;25.556;2023-12-07T06:05:47;98771.75;;;6.84;79.12
11912;BME280;6016;41.928;25.556;2023-12-07T06:08:14;98751.47;;;6.54;78.19
11912;BME280;6016;41.928;25.556;2023-12-07T06:10:41;98797.50;;;6.79;78.55
11912;BME280;6016;41.928;25.556;2023-12-07T06:13:08;98826.03;;;6.94;78.67
11912;BME280;6016;41.928;25.556;2023-12-07T06:15:37;98821.13;;;7.00;78.37
11912;BME280;6016;41.928;25.556;2023-12-07T06:18:04;98779.13;;;6.79;78.93
11912;BME280;6016;41.928;25.556;2023-12-07T06:20:31;98817.66;;;7.11;78.75
11912;BME280;6016;41.928;25.556;2023-12-07T06:22:59;98826.72;;;7.07;79.10
11912;BME280;6016;41.928;25.556;2023-12-07T06:25:26;98834.88;;;6.93;79.37
11912;BME280;6016;41.928;25.556;2023-12-07T06:27:53;98805.00;;;6.84;80.07
11912;BME280;6016;41.928;25.556;2023-12-07T06:30:21;98831.16;;;7.07;79.74
11912;BME280;6016;41.928;25.556;2023-12-07T06:32:51;98811.50;;;7.01;80.60
11912;BME280;6016;41.928;25.556;2023-12-07T06:35:18;98838.03;;;7.19;80.21
11912;BME280;6016;41.928;25.556;2023-12-07T06:37:45;98830.97;;;7.20;79.92
11912;BME280;6016;41.928;25.556;2023-12-07T06:40:12;98827.16;;;7.24;79.53
11912;BME280;6016;41.928;25.556;2023-12-07T06:42:39;98835.84;;;7.24;79.33
11912;BME280;6016;41.928;25.556;2023-12-07T06:45:07;98759.28;;;6.77;80.44
11912;BME280;6016;41.928;25.556;2023-12-07T06:47:36;98818.81;;;7.18;79.80
11912;BME280;6016;41.928;25.556;2023-12-07T06:50:06;98827.78;;;7.16;80.11
11912;BME280;6016;41.928;25.556;2023-12-07T06:52:35;98835.84;;;7.24;81.40
11912;BME280;6016;41.928;25.556;2023-12-07T06:55:02;98632.63;;;6.11;80.24
11912;BME280;6016;41.928;25.556;2023-12-07T06:57:29;98840.63;;;7.52;80.26
11912;BME280;6016;41.928;25.556;2023-12-07T06:59:57;98827.94;;;7.57;80.40
11912;BME280;6016;41.928;25.556;2023-12-07T07:02:24;98835.13;;;7.76;79.50
11912;BME280;6016;41.928;25.556;2023-12-07T07:04:51;98845.56;;;7.87;79.40
11912;BME280;6016;41.928;25.556;2023-12-07T07:07:19;98840.31;;;7.87;79.71
11912;BME280;6016;41.928;25.556;2023-12-07T07:09:46;98826.50;;;7.85;80.05
11912;BME280;6016;41.928;25.556;2023-12-07T07:12:13;98851.66;;;8.09;80.09
11912;BME280;6016;41.928;25.556;2023-12-07T07:14:42;98853.34;;;8.20;79.95
11912;BME280;6016;41.928;25.556;2023-12-07T07:17:09;98848.75;;;8.12;78.32
11912;BME280;6016;41.928;25.556;2023-12-07T07:19:36;98861.31;;;8.30;77.82
11912;BME280;6016;41.928;25.556;2023-12-07T07:22:02;98865.63;;;8.41;77.06
11912;BME280;6016;41.928;25.556;2023-12-07T07:24:30;98867.97;;;8.44;76.58
11912;BME280;6016;41.928;25.556;2023-12-07T07:26:58;98864.16;;;8.48;77.33
11912;BME280;6016;41.928;25.556;2023-12-07T07:29:24;98861.00;;;8.54;77.70
11912;BME280;6016;41.928;25.556;2023-12-07T07:31:53;98866.56;;;8.61;78.05
11912;BME280;6016;41.928;25.556;2023-12-07T07:34:21;98853.56;;;8.60;77.81
11912;BME280;6016;41.928;25.556;2023-12-07T07:36:48;98862.59;;;8.77;78.44
11912;BME280;6016;41.928;25.556;2023-12-07T07:39:15;98862.06;;;8.83;78.25
11912;BME280;6016;41.928;25.556;2023-12-07T07:41:44;98869.97;;;8.93;78.85
11912;BME280;6016;41.928;25.556;2023-12-07T07:44:11;98837.53;;;8.72;78.76
11912;BME280;6016;41.928;25.556;2023-12-07T07:46:40;98885.13;;;9.10;77.92
11912;BME280;6016;41.928;25.556;2023-12-07T07:49:07;98798.50;;;8.68;78.29
11912;BME280;6016;41.928;25.556;2023-12-07T07:51:34;98881.13;;;9.26;78.58
11912;BME280;6016;41.928;25.556;2023-12-07T07:54:01;98883.47;;;9.39;78.73
11912;BME280;6016;41.928;25.556;2023-12-07T07:56:28;98885.97;;;9.50;78.89
11912;BME280;6016;41.928;25.556;2023-12-07T07:58:56;98883.47;;;9.19;78.22
11912;BME280;6016;41.928;25.556;2023-12-07T08:01:26;98886.06;;;9.09;78.03
11912;BME280;6016;41.928;25.556;2023-12-07T08:03:53;98880.72;;;9.31;78.67
11912;BME280;6016;41.928;25.556;2023-12-07T08:06:20;98889.88;;;9.36;77.72
11912;BME280;6016;41.928;25.556;2023-12-07T08:08:47;98888.06;;;9.37;77.84
11912;BME280;6016;41.928;25.556;2023-12-07T08:11:14;98886.69;;;9.33;78.09
11912;BME280;6016;41.928;25.556;2023-12-07T08:13:41;98835.94;;;9.01;78.06
11912;BME280;6016;41.928;25.556;2023-12-07T08:16:10;98865.75;;;9.31;78.35
11912;BME280;6016;41.928;25.556;2023-12-07T08:18:37;98897.91;;;9.45;78.43
11912;BME280;6016;41.928;25.556;2023-12-07T08:21:04;98904.69;;;9.47;78.52
11912;BME280;6016;41.928;25.556;2023-12-07T08:23:33;98899.59;;;9.55;78.31
11912;BME280;6016;41.928;25.556;2023-12-07T08:26:01;98906.34;;;9.58;78.28
11912;BME280;6016;41.928;25.556;2023-12-07T08:28:28;98907.19;;;9.59;78.28
11912;BME280;6016;41.928;25.556;2023-12-07T08:30:55;98901.78;;;9.50;79.30
11912;BME280;6016;41.928;25.556;2023-12-07T08:33:23;98912.88;;;9.54;79.50
11912;BME280;6016;41.928;25.556;2023-12-07T08:35:50;98906.09;;;9.61;80.63
11912;BME280;6016;41.928;25.556;2023-12-07T08:38:20;98909.00;;;9.68;80.09
11912;BME280;6016;41.928;25.556;2023-12-07T08:40:48;98908.56;;;9.73;80.47
11912;BME280;6016;41.928;25.556;2023-12-07T08:43:15;98900.25;;;9.77;79.60
11912;BME280;6016;41.928;25.556;2023-12-07T08:45:42;98901.09;;;9.78;79.42
11912;BME280;6016;41.928;25.556;2023-12-07T08:48:09;98906.50;;;9.76;80.33
11912;BME280;6016;41.928;25.556;2023-12-07T08:50:38;98876.69;;;9.66;80.46
11912;BME280;6016;41.928;25.556;2023-12-07T08:53:06;98835.69;;;9.43;79.67
11912;BME280;6016;41.928;25.556;2023-12-07T08:55:33;98892.78;;;9.63;80.09
11912;BME280;6016;41.928;25.556;2023-12-07T08:58:00;98894.41;;;9.93;80.34
11912;BME280;6016;41.928;25.556;2023-12-07T09:00:30;98869.78;;;9.75;79.73
11912;BME280;6016;41.928;25.556;2023-12-07T09:02:57;98901.22;;;9.96;79.13
11912;BME280;6016;41.928;25.556;2023-12-07T09:05:26;98705.09;;;8.73;79.61
11912;BME280;6016;41.928;25.556;2023-12-07T09:07:54;98894.41;;;10.03;79.12
11912;BME280;6016;41.928;25.556;2023-12-07T09:10:21;98893.97;;;10.08;79.31
11912;BME280;6016;41.928;25.556;2023-12-07T09:12:48;98893.69;;;10.11;79.25
11912;BME280;6016;41.928;25.556;2023-12-07T09:15:15;98890.78;;;10.14;78.48
11912;BME280;6016;41.928;25.556;2023-12-07T09:17:42;98894.66;;;10.20;78.22
11912;BME280;6016;41.928;25.556;2023-12-07T09:20:10;98856.56;;;9.94;78.70
11912;BME280;6016;41.928;25.556;2023-12-07T09:22:38;98890.34;;;10.28;78.50
11912;BME280;6016;41.928;25.556;2023-12-07T09:25:08;98884.34;;;10.36;78.45
11912;BME280;6016;41.928;25.556;2023-12-07T09:27:35;98878.78;;;10.39;78.22
11912;BME280;6016;41.928;25.556;2023-12-07T09:30:04;98871.03;;;10.38;78.61
11912;BME280;6016;41.928;25.556;2023-12-07T09:32:33;98882.63;;;10.55;77.77
11912;BME280;6016;41.928;25.556;2023-12-07T09:35:04;98879.13;;;10.64;78.34
11912;BME280;6016;41.928;25.556;2023-12-07T09:37:32;98870.34;;;10.74;78.31
11912;BME280;6016;41.928;25.556;2023-12-07T09:39:59;98890.97;;;10.88;78.06
11912;BME280;6016;41.928;25.556;2023-12-07T09:42:28;98870.63;;;10.98;76.35
11912;BME280;6016;41.928;25.556;2023-12-07T09:44:55;98837.75;;;10.93;77.76
11912;BME280;6016;41.928;25.556;2023-12-07T09:47:22;98865.44;;;11.07;76.10
11912;BME280;6016;41.928;25.556;2023-12-07T09:49:49;98863.41;;;11.19;75.72
11912;BME280;6016;41.928;25.556;2023-12-07T09:52:16;98858.28;;;11.17;75.07
11912;BME280;6016;41.928;25.556;2023-12-07T09:54:44;98851.28;;;11.26;75.00
11912;BME280;6016;41.928;25.556;2023-12-07T09:57:11;98860.47;;;11.22;75.08
11912;BME280;6016;41.928;25.556;2023-12-07T09:59:41;98857.78;;;11.32;74.89
11912;BME280;6016;41.928;25.556;2023-12-07T10:02:08;98855.41;;;11.47;75.20
11912;BME280;6016;41.928;25.556;2023-12-07T10:04:35;98852.00;;;11.54;73.83
11912;BME280;6016;41.928;25.556;2023-12-07T10:07:02;98853.84;;;11.54;74.40
11912;BME280;6016;41.928;25.556;2023-12-07T10:09:29;98818.16;;;11.32;74.04
11912;BME280;6016;41.928;25.556;2023-12-07T10:12:02;98840.09;;;11.50;74.27
11912;BME280;6016;41.928;25.556;2023-12-07T10:14:29;98826.06;;;11.50;74.56
11912;BME280;6016;41.928;25.556;2023-12-07T10:17:00;98835.56;;;11.61;73.66
11912;BME280;6016;41.928;25.556;2023-12-07T10:19:27;98810.69;;;11.45;73.65
11912;BME280;6016;41.928;25.556;2023-12-07T10:21:54;98827.25;;;11.56;74.10
11912;BME280;6016;41.928;25.556;2023-12-07T10:24:22;98845.97;;;11.62;74.33
11912;BME280;6016;41.928;25.556;2023-12-07T10:26:50;98839.19;;;11.60;74.26
11912;BME280;6016;41.928;25.556;2023-12-07T10:29:18;98833.75;;;11.61;74.32
11912;BME280;6016;41.928;25.556;2023-12-07T10:31:45;98828.25;;;11.54;74.46
11912;BME280;6016;41.928;25.556;2023-12-07T10:34:17;98829.91;;;11.56;74.45
11912;BME280;6016;41.928;25.556;2023-12-07T10:36:46;98566.94;;;9.93;75.90
11912;BME280;6016;41.928;25.556;2023-12-07T10:39:13;98778.84;;;11.29;75.88
11912;BME280;6016;41.928;25.556;2023-12-07T10:41:43;98826.31;;;11.57;74.74
11912;BME280;6016;41.928;25.556;2023-12-07T10:44:13;98820.16;;;11.56;75.06
11912;BME280;6016;41.928;25.556;2023-12-07T10:46:42;98818.19;;;11.58;75.23
11912;BME280;6016;41.928;25.556;2023-12-07T10:49:17;98763.19;;;11.09;73.94
11912;BME280;6016;41.928;25.556;2023-12-07T10:51:51;98821.31;;;11.53;73.86
11912;BME280;6016;41.928;25.556;2023-12-07T10:54:22;98822.81;;;11.38;73.58
11912;BME280;6016;41.928;25.556;2023-12-07T10:56:49;98775.75;;;10.97;73.88
11912;BME280;6016;41.928;25.556;2023-12-07T10:59:17;98780.59;;;11.02;75.22
11912;BME280;6016;41.928;25.556;2023-12-07T11:01:45;98827.00;;;11.22;74.35
11912;BME280;6016;41.928;25.556;2023-12-07T11:04:14;98819.59;;;11.08;74.64
11912;BME280;6016;41.928;25.556;2023-12-07T11:06:46;98823.72;;;11.10;74.82
11912;BME280;6016;41.928;25.556;2023-12-07T11:09:21;98817.63;;;11.10;75.93
11912;BME280;6016;41.928;25.556;2023-12-07T11:11:52;98815.13;;;11.08;76.08
11912;BME280;6016;41.928;25.556;2023-12-07T11:14:21;98797.78;;;11.06;75.43
11912;BME280;6016;41.928;25.556;2023-12-07T11:16:48;98746.72;;;10.79;74.52
11912;BME280;6016;41.928;25.556;2023-12-07T11:19:43;98811.50;;;11.28;75.15
11912;BME280;6016;41.928;25.556;2023-12-07T11:22:12;98783.84;;;11.14;75.93
11912;BME280;6016;41.928;25.556;2023-12-07T11:24:52;98805.47;;;11.35;76.64
11912;BME280;6016;41.928;25.556;2023-12-07T11:27:21;98804.69;;;11.43;75.54
11912;BME280;6016;41.928;25.556;2023-12-07T11:29:48;98808.63;;;11.39;75.09
11912;BME280;6016;41.928;25.556;2023-12-07T11:32:16;98643.03;;;10.42;76.39
11912;BME280;6016;41.928;25.556;2023-12-07T11:34:43;98807.28;;;11.53;76.10
11912;BME280;6016;41.928;25.556;2023-12-07T11:37:16;98786.44;;;11.50;75.34
11912;BME280;6016;41.928;25.556;2023-12-07T11:39:43;98803.88;;;11.61;75.09
11912;BME280;6016;41.928;25.556;2023-12-07T11:42:12;98803.97;;;11.51;75.27
11912;BME280;6016;41.928;25.556;2023-12-07T11:44:42;98798.19;;;11.56;75.40
11912;BME280;6016;41.928;25.556;2023-12-07T11:47:15;98798.13;;;11.65;74.45
11912;BME280;6016;41.928;25.556;2023-12-07T11:49:42;98748.03;;;11.37;75.49
11912;BME280;6016;41.928;25.556;2023-12-07T11:52:15;98792.63;;;11.59;74.74
11912;BME280;6016;41.928;25.556;2023-12-07T11:54:43;98789.78;;;11.52;75.97
11912;BME280;6016;41.928;25.556;2023-12-07T11:57:10;98768.94;;;11.31;74.98
11912;BME280;6016;41.928;25.556;2023-12-07T11:59:37;98782.09;;;11.40;76.14
11912;BME280;6016;41.928;25.556;2023-12-07T12:02:05;98801.16;;;11.52;76.60
11912;BME280;6016;41.928;25.556;2023-12-07T12:04:32;98795.72;;;11.54;76.95
11912;BME280;6016;41.928;25.556;2023-12-07T12:06:59;98794.44;;;11.58;76.09
11912;BME280;6016;41.928;25.556;2023-12-07T12:09:27;98757.06;;;11.26;76.20
11912;BME280;6016;41.928;25.556;2023-12-07T12:11:54;98792.41;;;11.52;76.79
11912;BME280;6016;41.928;25.556;2023-12-07T12:14:26;98771.06;;;11.45;76.69
11912;BME280;6016;41.928;25.556;2023-12-07T12:16:53;98756.81;;;11.38;76.75
11912;BME280;6016;41.928;25.556;2023-12-07T12:19:22;98786.91;;;11.45;76.77
11912;BME280;6016;41.928;25.556;2023-12-07T12:21:49;98761.84;;;11.49;75.51
11912;BME280;6016;41.928;25.556;2023-12-07T12:24:16;98763.66;;;11.49;75.43
11912;BME280;6016;41.928;25.556;2023-12-07T12:26:45;98777.25;;;11.54;76.71
11912;BME280;6016;41.928;25.556;2023-12-07T12:29:13;98777.69;;;11.49;75.65
11912;BME280;6016;41.928;25.556;2023-12-07T12:31:41;98783.66;;;11.51;76.55
11912;BME280;6016;41.928;25.556;2023-12-07T12:34:08;98776.94;;;11.39;76.45
11912;BME280;6016;41.928;25.556;2023-12-07T12:36:38;98770.16;;;11.18;76.53
11912;BME280;6016;41.928;25.556;2023-12-07T12:39:05;98775.75;;;11.33;77.29
11912;BME280;6016;41.928;25.556;2023-12-07T12:41:33;98779.91;;;11.36;76.51
11912;BME280;6016;41.928;25.556;2023-12-07T12:44:02;98786.84;;;11.37;76.36
11912;BME280;6016;41.928;25.556;2023-12-07T12:46:29;98791.50;;;11.43;75.52
11912;BME280;6016;41.928;25.556;2023-12-07T12:48:57;98793.69;;;11.48;76.21
11912;BME280;6016;41.928;25.556;2023-12-07T12:51:25;98790.06;;;11.49;76.60
11912;BME280;6016;41.928;25.556;2023-12-07T12:53:54;98409.19;;;9.07;76.01
11912;BME280;6016;41.928;25.556;2023-12-07T12:56:22;98797.69;;;11.52;76.80
11912;BME280;6016;41.928;25.556;2023-12-07T12:58:50;98797.25;;;11.57;77.61
11912;BME280;6016;41.928;25.556;2023-12-07T13:01:18;98756.81;;;11.38;76.74
11912;BME280;6016;41.928;25.556;2023-12-07T13:03:46;98787.19;;;11.42;76.29
11912;BME280;6016;41.928;25.556;2023-12-07T13:06:13;98777.28;;;11.36;76.43
11912;BME280;6016;41.928;25.556;2023-12-07T13:08:41;98793.53;;;11.49;76.97
11912;BME280;6016;41.928;25.556;2023-12-07T13:11:09;98753.06;;;11.22;76.32
11912;BME280;6016;41.928;25.556;2023-12-07T13:13:36;98719.22;;;10.81;77.43
11912;BME280;6016;41.928;25.556;2023-12-07T13:16:03;98800.91;;;11.19;78.30
11912;BME280;6016;41.928;25.556;2023-12-07T13:18:32;98776.91;;;11.13;77.26
11912;BME280;6016;41.928;25.556;2023-12-07T13:20:59;98295.72;;;7.70;77.00
11912;BME280;6016;41.928;25.556;2023-12-07T13:23:27;98801.34;;;11.15;78.22
11912;BME280;6016;41.928;25.556;2023-12-07T13:25:54;98808.28;;;11.16;77.99
11912;BME280;6016;41.928;25.556;2023-12-07T13:28:21;98798.09;;;11.21;77.15